createdAt,value
2018-03-18T00:01:26.363Z,5.43
2018-03-18T00:03:53.913Z,6.33
2018-03-18T00:06:21.475Z,5.37
2018-03-18T00:08:49.057Z,5.27
2018-03-18T00:11:16.708Z,5.27
2018-03-18T00:13:44.275Z,4.80
2018-03-18T00:16:11.921Z,5.13
2018-03-18T00:18:39.475Z,5.53
2018-03-18T00:21:07.066Z,4.60
2018-03-18T00:23:34.648Z,4.60
2018-03-18T00:26:02.210Z,5.40
2018-03-18T00:28:29.785Z,4.70
2018-03-18T00:30:57.368Z,5.20
2018-03-18T00:33:24.914Z,4.83
2018-03-18T00:35:52.491Z,4.90
2018-03-18T00:38:20.054Z,4.80
2018-03-18T00:40:47.616Z,4.70
2018-03-18T00:43:15.181Z,4.87
2018-03-18T00:45:42.748Z,5.27
2018-03-18T00:48:10.337Z,4.93
2018-03-18T00:50:38.683Z,5.20
2018-03-18T00:53:06.316Z,5.43
2018-03-18T00:55:33.883Z,4.53
2018-03-18T00:58:01.457Z,4.73
2018-03-18T01:00:29.197Z,5.13
2018-03-18T01:02:57.532Z,5.17
2018-03-18T01:05:25.101Z,4.70
2018-03-18T01:07:52.666Z,4.93
2018-03-18T01:10:20.231Z,5.07
2018-03-18T01:12:47.961Z,5.17
2018-03-18T01:15:15.518Z,5.00
2018-03-18T01:17:43.079Z,4.87
2018-03-18T01:20:11.429Z,5.63
2018-03-18T01:22:39.127Z,5.37
2018-03-18T01:25:07.481Z,5.20
2018-03-18T01:27:35.043Z,4.60
2018-03-18T01:30:02.652Z,5.60
2018-03-18T01:32:30.996Z,5.13
2018-03-18T01:34:58.564Z,5.67
2018-03-18T01:37:26.320Z,4.97
2018-03-18T01:39:53.886Z,4.93
2018-03-18T01:42:21.461Z,4.80
2018-03-18T01:44:49.028Z,4.83
2018-03-18T01:47:16.582Z,5.40
2018-03-18T01:49:44.508Z,4.97
2018-03-18T01:52:12.837Z,5.10
2018-03-18T01:54:40.417Z,5.50
2018-03-18T01:57:08.127Z,4.90
2018-03-18T01:59:35.722Z,4.80
2018-03-18T02:02:03.357Z,4.90
2018-03-18T02:04:31.699Z,5.27
2018-03-18T02:06:59.265Z,5.03
2018-03-18T02:09:26.827Z,5.00
2018-03-18T02:11:54.412Z,5.17
2018-03-18T02:14:21.983Z,5.47
2018-03-18T02:16:49.552Z,5.40
2018-03-18T02:19:17.125Z,5.50
2018-03-18T02:21:45.450Z,5.23
2018-03-18T02:24:13.026Z,5.10
2018-03-18T02:26:40.623Z,5.43
2018-03-18T02:29:08.193Z,5.07
2018-03-18T02:31:35.751Z,5.57
2018-03-18T02:34:03.428Z,5.30
2018-03-18T02:36:30.991Z,5.03
2018-03-18T02:38:58.581Z,5.53
2018-03-18T02:41:26.897Z,5.20
2018-03-18T02:43:54.471Z,5.50
2018-03-18T02:46:22.116Z,4.67
2018-03-18T02:48:49.680Z,4.97
2018-03-18T02:51:18.263Z,4.87
2018-03-18T02:53:45.808Z,4.73
2018-03-18T02:56:13.487Z,5.13
2018-03-18T02:58:41.121Z,5.03
2018-03-18T03:01:08.685Z,4.27
2018-03-18T03:03:36.227Z,4.43
2018-03-18T03:06:04.564Z,4.50
2018-03-18T03:08:32.127Z,4.43
2018-03-18T03:10:59.693Z,4.57
2018-03-18T03:13:27.247Z,4.47
2018-03-18T03:15:54.834Z,4.80
2018-03-18T03:18:22.395Z,4.53
2018-03-18T03:20:49.959Z,4.30
2018-03-18T03:23:17.523Z,4.47
2018-03-18T03:25:45.088Z,4.70
2018-03-18T03:28:12.760Z,4.53
2018-03-18T03:30:40.329Z,4.10
2018-03-18T03:33:07.893Z,4.83
2018-03-18T03:35:35.453Z,4.60
2018-03-18T03:38:03.019Z,4.27
2018-03-18T03:40:30.622Z,4.33
2018-03-18T03:42:58.191Z,4.40
2018-03-18T03:45:25.759Z,4.37
2018-03-18T03:47:54.086Z,4.60
2018-03-18T03:50:21.650Z,4.57
2018-03-18T03:52:49.601Z,4.17
2018-03-18T03:55:17.158Z,4.13
2018-03-18T03:57:45.494Z,3.97
2018-03-18T04:00:13.041Z,4.53
2018-03-18T04:02:40.609Z,4.03
2018-03-18T04:05:08.194Z,4.70
2018-03-18T04:07:35.749Z,4.33
2018-03-18T04:10:03.319Z,4.17
2018-03-18T04:12:30.890Z,4.40
2018-03-18T04:14:58.449Z,4.17
2018-03-18T04:17:26.035Z,4.23
2018-03-18T04:19:53.589Z,4.23
2018-03-18T04:22:21.219Z,4.37
2018-03-18T04:24:48.767Z,4.33
2018-03-18T04:27:17.168Z,4.37
2018-03-18T04:29:44.779Z,4.53
2018-03-18T04:32:13.224Z,4.60
2018-03-18T04:34:40.770Z,4.70
2018-03-18T04:37:09.099Z,4.10
2018-03-18T04:39:36.750Z,4.77
2018-03-18T04:42:04.698Z,4.77
2018-03-18T04:44:32.266Z,4.50
2018-03-18T04:46:59.834Z,5.17
2018-03-18T04:49:27.398Z,4.30
2018-03-18T04:51:54.950Z,4.87
2018-03-18T04:54:23.306Z,5.00
2018-03-18T04:56:50.874Z,4.90
2018-03-18T04:59:18.453Z,23.23
2018-03-18T05:01:46.802Z,39.03
2018-03-18T05:04:14.362Z,54.97
2018-03-18T05:06:41.966Z,63.57
2018-03-18T05:09:09.555Z,64.17
2018-03-18T05:11:37.942Z,62.50
2018-03-18T05:14:06.274Z,68.40
2018-03-18T05:16:33.849Z,54.77
2018-03-18T05:19:01.427Z,50.97
2018-03-18T05:21:28.999Z,47.90
2018-03-18T05:23:56.572Z,48.50
2018-03-18T05:26:24.914Z,47.83
2018-03-18T05:28:52.504Z,51.87
2018-03-18T05:31:20.190Z,39.17
2018-03-18T05:33:48.570Z,39.80
2018-03-18T05:36:16.906Z,37.53
2018-03-18T05:38:44.469Z,35.17
2018-03-18T05:41:12.212Z,37.90
2018-03-18T05:43:39.798Z,39.30
2018-03-18T05:46:07.371Z,31.17
2018-03-18T05:48:35.020Z,30.43
2018-03-18T05:51:02.674Z,31.87
2018-03-18T05:53:30.258Z,34.47
2018-03-18T05:55:57.838Z,27.50
2018-03-18T05:58:25.449Z,30.37
2018-03-18T06:00:53.038Z,29.90
2018-03-18T06:03:21.378Z,28.27
2018-03-18T06:05:49.018Z,27.13
2018-03-18T06:08:16.707Z,26.13
2018-03-18T06:10:44.272Z,22.03
2018-03-18T06:13:11.825Z,18.67
2018-03-18T06:15:39.389Z,24.23
2018-03-18T06:18:06.954Z,22.77
2018-03-18T06:20:34.532Z,25.03
2018-03-18T06:23:02.095Z,19.20
2018-03-18T06:25:29.836Z,19.73
2018-03-18T06:27:57.406Z,19.60
2018-03-18T06:30:24.981Z,22.13
2018-03-18T06:32:52.563Z,16.67
2018-03-18T06:35:20.144Z,19.73
2018-03-18T06:37:47.879Z,19.50
2018-03-18T06:40:15.438Z,19.47
2018-03-18T06:42:43.004Z,18.33
2018-03-18T06:45:10.583Z,16.30
2018-03-18T06:47:38.234Z,15.77
2018-03-18T06:50:05.804Z,14.20
2018-03-18T06:52:33.371Z,16.87
2018-03-18T06:55:00.937Z,12.27
2018-03-18T06:57:28.546Z,15.73
2018-03-18T06:59:56.109Z,15.10
2018-03-18T07:02:23.742Z,13.00
2018-03-18T07:04:51.312Z,12.27
2018-03-18T07:07:18.900Z,14.10
2018-03-18T07:09:46.938Z,14.87
2018-03-18T07:12:14.500Z,15.03
2018-03-18T07:14:42.059Z,12.40
2018-03-18T07:17:10.384Z,15.00
2018-03-18T07:19:37.953Z,15.60
2018-03-18T07:22:05.535Z,13.67
2018-03-18T07:24:33.082Z,10.10
2018-03-18T07:27:00.667Z,13.03
2018-03-18T07:29:28.247Z,10.23
2018-03-18T07:31:55.841Z,11.50
2018-03-18T07:34:23.422Z,10.37
2018-03-18T07:36:51.005Z,11.97
2018-03-18T07:39:18.708Z,8.43
2018-03-18T07:41:46.240Z,9.50
2018-03-18T07:44:13.881Z,11.60
2018-03-18T07:46:41.428Z,8.43
2018-03-18T07:49:09.769Z,9.90
2018-03-18T07:51:37.353Z,7.70
2018-03-18T07:54:04.929Z,6.23
2018-03-18T07:56:32.514Z,7.87
2018-03-18T07:59:00.876Z,7.40
2018-03-18T08:01:28.438Z,6.40
2018-03-18T08:03:56.774Z,6.27
2018-03-18T08:06:24.359Z,10.50
2018-03-18T08:08:51.933Z,13.20
2018-03-18T08:11:19.591Z,6.77
2018-03-18T08:13:47.203Z,9.57
2018-03-18T08:16:14.795Z,7.97
2018-03-18T08:18:42.355Z,6.63
2018-03-18T08:21:09.917Z,9.93
2018-03-18T08:23:37.517Z,5.83
2018-03-18T08:26:05.096Z,5.90
2018-03-18T08:28:32.765Z,6.37
2018-03-18T08:31:00.382Z,8.27
2018-03-18T08:33:27.986Z,7.93
2018-03-18T08:35:55.638Z,6.37
2018-03-18T08:38:23.925Z,7.47
2018-03-18T08:40:51.506Z,5.43
2018-03-18T08:43:19.086Z,8.97
2018-03-18T08:45:46.838Z,7.20
2018-03-18T08:48:14.539Z,5.23
2018-03-18T08:50:42.094Z,7.53
2018-03-18T08:53:09.705Z,7.63
2018-03-18T08:55:38.041Z,6.33
2018-03-18T08:58:05.596Z,5.83
2018-03-18T09:00:33.171Z,5.57
2018-03-18T09:03:01.316Z,5.40
2018-03-18T09:05:28.881Z,5.63
2018-03-18T09:07:56.458Z,5.30
2018-03-18T09:10:24.137Z,5.13
2018-03-18T09:12:51.720Z,5.03
2018-03-18T09:15:19.289Z,5.33
2018-03-18T09:17:46.900Z,8.43
2018-03-18T09:20:14.429Z,5.73
2018-03-18T09:22:41.985Z,7.57
2018-03-18T09:25:09.573Z,6.03
2018-03-18T09:27:37.924Z,5.37
2018-03-18T09:30:05.502Z,7.40
2018-03-18T09:32:33.168Z,6.93
2018-03-18T09:35:00.850Z,5.90
2018-03-18T09:37:28.486Z,6.67
2018-03-18T09:39:56.057Z,11.33
2018-03-18T09:42:23.660Z,6.70
2018-03-18T09:44:51.990Z,5.60
2018-03-18T09:47:19.590Z,5.33
2018-03-18T09:49:47.178Z,5.43
2018-03-18T09:52:15.502Z,6.87
2018-03-18T09:54:43.101Z,6.40
2018-03-18T09:57:10.657Z,5.17
2018-03-18T09:59:38.364Z,5.43
2018-03-18T10:02:06.887Z,5.53
2018-03-18T10:04:34.490Z,5.33
2018-03-18T10:07:02.100Z,5.77
2018-03-18T10:09:29.701Z,5.87
2018-03-18T10:11:57.279Z,5.53
2018-03-18T10:14:26.180Z,5.57
2018-03-18T10:16:54.686Z,5.87
2018-03-18T10:19:22.284Z,5.33
2018-03-18T10:21:49.868Z,6.07
2018-03-18T10:24:19.538Z,5.60
2018-03-18T10:26:48.125Z,6.47
2018-03-18T10:29:16.456Z,6.70
2018-03-18T10:31:44.037Z,5.97
2018-03-18T10:34:11.608Z,4.60
2018-03-18T10:36:39.188Z,5.17
2018-03-18T10:39:06.787Z,5.43
2018-03-18T10:41:35.137Z,4.97
2018-03-18T10:44:02.700Z,7.23
2018-03-18T10:46:30.272Z,4.70
2018-03-18T10:48:57.843Z,5.77
2018-03-18T10:51:25.444Z,6.17
2018-03-18T10:53:53.022Z,4.80
2018-03-18T10:56:20.587Z,6.67
2018-03-18T10:58:48.156Z,4.93
2018-03-18T11:01:21.273Z,5.00
2018-03-18T11:03:54.405Z,4.23
2018-03-18T11:06:21.961Z,4.70
2018-03-18T11:08:49.875Z,4.30
2018-03-18T11:11:17.475Z,5.10
2018-03-18T11:13:45.061Z,4.60
2018-03-18T11:16:12.630Z,4.80
2018-03-18T11:18:40.218Z,4.63
2018-03-18T11:21:08.564Z,4.77
2018-03-18T11:23:36.125Z,4.87
2018-03-18T11:26:03.707Z,4.80
2018-03-18T11:28:31.307Z,4.00
2018-03-18T11:30:59.655Z,5.23
2018-03-18T11:33:27.259Z,4.20
2018-03-18T11:35:55.600Z,5.17
2018-03-18T11:38:23.252Z,5.90
2018-03-18T11:40:50.839Z,6.60
2018-03-18T11:43:18.417Z,5.13
2018-03-18T11:45:46.059Z,4.97
2018-03-18T11:48:13.673Z,4.87
2018-03-18T11:50:42.003Z,4.40
2018-03-18T11:53:09.587Z,4.50
2018-03-18T11:55:37.232Z,4.70
2018-03-18T11:58:05.604Z,4.17
2018-03-18T12:00:33.185Z,4.60
2018-03-18T12:03:00.923Z,5.07
2018-03-18T12:05:28.556Z,4.73
2018-03-18T12:07:56.126Z,4.43
2018-03-18T12:10:24.506Z,4.83
2018-03-18T12:12:52.084Z,4.57
2018-03-18T12:15:20.414Z,5.00
2018-03-18T12:17:47.983Z,4.53
2018-03-18T12:20:15.624Z,4.97
2018-03-18T12:22:43.307Z,4.50
2018-03-18T12:25:10.884Z,4.10
2018-03-18T12:27:38.493Z,4.33
2018-03-18T12:30:06.849Z,4.60
2018-03-18T12:32:34.419Z,5.07
2018-03-18T12:35:02.001Z,4.27
2018-03-18T12:37:29.563Z,4.53
2018-03-18T12:40:08.961Z,4.53
2018-03-18T12:42:48.310Z,4.70
2018-03-18T12:45:15.895Z,4.70
2018-03-18T12:47:43.506Z,5.07
2018-03-18T12:50:11.107Z,4.50
2018-03-18T12:52:38.693Z,4.43
2018-03-18T12:55:06.256Z,4.50
2018-03-18T12:57:34.016Z,4.50
2018-03-18T13:00:01.580Z,5.30
2018-03-18T13:02:29.146Z,4.97
2018-03-18T13:04:56.889Z,4.67
2018-03-18T13:07:24.439Z,4.13
2018-03-18T13:09:52.028Z,4.33
2018-03-18T13:12:19.588Z,4.60
2018-03-18T13:14:47.171Z,4.20
2018-03-18T13:17:14.756Z,4.47
2018-03-18T13:19:42.345Z,4.33
2018-03-18T13:22:10.710Z,4.47
2018-03-18T13:24:38.311Z,5.20
2018-03-18T13:27:06.659Z,4.70
2018-03-18T13:29:35.737Z,4.60
2018-03-18T13:32:03.344Z,5.00
2018-03-18T13:34:31.883Z,5.47
2018-03-18T13:36:59.638Z,5.67
2018-03-18T13:39:27.187Z,5.83
2018-03-18T13:41:54.769Z,5.60
2018-03-18T13:44:22.358Z,5.37
2018-03-18T13:46:50.075Z,7.00
2018-03-18T13:49:18.423Z,5.43
2018-03-18T13:51:45.983Z,5.57
2018-03-18T13:54:13.570Z,4.83
2018-03-18T13:56:41.757Z,4.87
2018-03-18T13:59:09.401Z,9.17
2018-03-18T14:01:36.970Z,6.10
2018-03-18T14:04:04.538Z,8.33
2018-03-18T14:06:32.366Z,4.87
2018-03-18T14:08:59.939Z,5.43
2018-03-18T14:11:27.541Z,5.37
2018-03-18T14:13:55.112Z,5.40
2018-03-18T14:16:22.691Z,13.50
2018-03-18T14:18:50.258Z,5.10
2018-03-18T14:21:17.823Z,7.27
2018-03-18T14:23:45.426Z,7.33
2018-03-18T14:26:12.991Z,4.80
2018-03-18T14:28:40.591Z,5.47
2018-03-18T14:31:08.160Z,4.47
2018-03-18T14:33:35.756Z,5.10
2018-03-18T14:36:03.583Z,5.00
2018-03-18T14:38:31.149Z,5.57
2018-03-18T14:40:58.746Z,4.97
2018-03-18T14:43:26.327Z,4.77
2018-03-18T14:45:53.917Z,4.70
2018-03-18T14:48:21.703Z,5.20
2018-03-18T14:50:49.281Z,5.10
2018-03-18T14:53:16.869Z,4.80
2018-03-18T14:55:44.460Z,6.07
2018-03-18T14:58:12.045Z,6.80
2018-03-18T15:00:40.392Z,7.13
2018-03-18T15:03:08.153Z,5.33
2018-03-18T15:05:35.758Z,6.80
2018-03-18T15:08:04.111Z,4.80
2018-03-18T15:10:31.697Z,8.43
2018-03-18T15:12:59.422Z,5.13
2018-03-18T15:15:26.995Z,4.63
2018-03-18T15:17:54.582Z,5.63
2018-03-18T15:20:22.165Z,11.77
2018-03-18T15:22:49.901Z,4.63
2018-03-18T15:25:17.639Z,6.77
2018-03-18T15:27:45.231Z,6.10
2018-03-18T15:30:12.827Z,4.47
2018-03-18T15:32:40.506Z,7.13
2018-03-18T15:35:09.006Z,4.87
2018-03-18T15:37:37.375Z,4.77
2018-03-18T15:40:05.011Z,5.00
2018-03-18T15:42:32.592Z,4.43
2018-03-18T15:45:00.150Z,7.33
2018-03-18T15:47:27.779Z,5.20
2018-03-18T15:49:55.508Z,5.27
2018-03-18T15:52:23.090Z,5.37
2018-03-18T15:54:51.438Z,7.93
2018-03-18T15:57:19.027Z,4.97
2018-03-18T15:59:46.668Z,4.83
2018-03-18T16:02:14.441Z,4.30
2018-03-18T16:04:42.038Z,4.50
2018-03-18T16:07:09.617Z,4.47
2018-03-18T16:09:37.979Z,4.83
2018-03-18T16:12:05.596Z,5.93
2018-03-18T16:14:33.209Z,9.13
2018-03-18T16:17:00.810Z,8.63
2018-03-18T16:19:29.157Z,9.67
2018-03-18T16:21:56.775Z,9.30
2018-03-18T16:24:24.344Z,9.90
2018-03-18T16:26:51.937Z,6.47
2018-03-18T16:29:31.469Z,8.17
2018-03-18T16:31:59.174Z,6.53
2018-03-18T16:34:26.780Z,10.33
2018-03-18T16:36:54.428Z,8.63
2018-03-18T16:39:22.787Z,4.93
2018-03-18T16:41:50.357Z,5.40
2018-03-18T16:44:17.968Z,5.70
2018-03-18T16:46:45.594Z,5.20
2018-03-18T16:49:13.167Z,5.07
2018-03-18T16:51:41.590Z,7.20
2018-03-18T16:54:09.297Z,5.67
2018-03-18T16:56:36.939Z,8.93
2018-03-18T16:59:04.597Z,5.03
2018-03-18T17:01:32.214Z,5.63
2018-03-18T17:04:00.600Z,4.93
2018-03-18T17:06:28.291Z,4.90
2018-03-18T17:08:55.885Z,5.17
2018-03-18T17:11:23.481Z,4.57
2018-03-18T17:13:51.130Z,5.67
2018-03-18T17:16:18.859Z,4.73
2018-03-18T17:18:47.628Z,5.80
2018-03-18T17:21:15.285Z,5.03
2018-03-18T17:23:43.309Z,8.53
2018-03-18T17:26:11.095Z,9.97
2018-03-18T17:28:38.817Z,6.47
2018-03-18T17:31:06.393Z,4.90
2018-03-18T17:33:34.788Z,4.67
2018-03-18T17:36:04.418Z,5.77
2018-03-18T17:38:32.076Z,5.00
2018-03-18T17:41:00.618Z,4.77
2018-03-18T17:43:28.287Z,9.00
2018-03-18T17:46:07.584Z,7.70
2018-03-18T17:48:46.943Z,7.07
2018-03-18T17:51:26.382Z,5.20
2018-03-18T17:54:05.930Z,4.43
2018-03-18T17:56:36.125Z,10.43
2018-03-18T17:59:03.824Z,5.03
2018-03-18T18:01:31.666Z,11.17
2018-03-18T18:03:59.421Z,8.73
2018-03-18T18:06:27.103Z,10.83
2018-03-18T18:08:54.782Z,10.93
2018-03-18T18:11:22.876Z,29.83
2018-03-18T18:13:50.588Z,11.63
2018-03-18T18:16:21.036Z,13.13
2018-03-18T18:18:48.876Z,10.00
2018-03-18T18:21:16.597Z,12.00
2018-03-18T18:23:44.575Z,8.40
2018-03-18T18:26:12.439Z,10.17
2018-03-18T18:28:40.207Z,7.87
2018-03-18T18:31:07.984Z,8.77
2018-03-18T18:33:35.726Z,6.13
2018-03-18T18:36:03.627Z,6.70
2018-03-18T18:38:31.477Z,7.90
2018-03-18T18:41:00.176Z,7.90
2018-03-18T18:43:28.190Z,7.73
2018-03-18T18:45:55.899Z,10.27
2018-03-18T18:48:24.354Z,6.30
2018-03-18T18:50:52.277Z,6.13
2018-03-18T18:53:19.916Z,6.27
2018-03-18T18:55:48.579Z,6.50
2018-03-18T18:58:16.204Z,6.10
2018-03-18T19:00:43.811Z,6.37
2018-03-18T19:03:11.516Z,6.50
2018-03-18T19:05:39.922Z,5.90
2018-03-18T19:08:10.888Z,6.50
2018-03-18T19:10:38.659Z,6.20
2018-03-18T19:13:06.465Z,5.80
2018-03-18T19:15:34.098Z,6.03
2018-03-18T19:18:01.862Z,5.40
2018-03-18T19:20:30.151Z,5.30
2018-03-18T19:22:57.839Z,5.93
2018-03-18T19:25:26.015Z,5.93
2018-03-18T19:27:54.240Z,5.73
2018-03-18T19:30:21.886Z,5.67
2018-03-18T19:32:49.586Z,7.20
2018-03-18T19:35:17.238Z,5.60
2018-03-18T19:37:45.610Z,6.63
2018-03-18T19:40:14.886Z,5.70
2018-03-18T19:42:43.028Z,6.50
2018-03-18T19:45:11.006Z,6.00
2018-03-18T19:47:38.656Z,4.97
2018-03-18T19:50:07.144Z,4.93
2018-03-18T19:52:35.537Z,5.27
2018-03-18T19:55:03.233Z,5.20
2018-03-18T19:57:31.227Z,5.33
2018-03-18T20:00:02.550Z,5.47
2018-03-18T20:02:30.435Z,7.33
2018-03-18T20:04:58.310Z,5.27
2018-03-18T20:07:26.088Z,5.13
2018-03-18T20:09:53.897Z,5.03
2018-03-18T20:12:21.820Z,5.37
2018-03-18T20:14:49.664Z,4.73
2018-03-18T20:17:17.570Z,7.43
2018-03-18T20:19:45.394Z,6.43
2018-03-18T20:22:13.866Z,4.97
2018-03-18T20:24:41.606Z,4.70
2018-03-18T20:27:09.268Z,4.57
2018-03-18T20:29:37.545Z,4.73
2018-03-18T20:32:05.229Z,7.40
2018-03-18T20:34:32.854Z,4.50
2018-03-18T20:37:00.605Z,5.00
2018-03-18T20:39:29.054Z,4.57
2018-03-18T20:41:56.769Z,4.20
2018-03-18T20:44:25.145Z,4.30
2018-03-18T20:46:53.539Z,4.77
2018-03-18T20:49:21.905Z,4.87
2018-03-18T20:51:49.519Z,4.33
2018-03-18T20:54:17.212Z,4.40
2018-03-18T20:56:44.869Z,4.70
2018-03-18T20:59:12.473Z,4.73
2018-03-18T21:01:40.855Z,4.17
2018-03-18T21:04:08.454Z,4.83
2018-03-18T21:06:36.073Z,4.30
2018-03-18T21:09:03.652Z,4.40
2018-03-18T21:11:31.236Z,4.47
2018-03-18T21:13:59.614Z,4.17
2018-03-18T21:16:27.963Z,4.80
2018-03-18T21:18:55.671Z,4.37
2018-03-18T21:21:23.975Z,4.87
2018-03-18T21:23:51.565Z,4.37
2018-03-18T21:26:19.148Z,6.00
2018-03-18T21:28:46.891Z,4.27
2018-03-18T21:31:14.503Z,4.40
2018-03-18T21:33:42.844Z,4.53
2018-03-18T21:36:10.427Z,4.87
2018-03-18T21:38:37.994Z,4.67
2018-03-18T21:41:05.578Z,4.60
2018-03-18T21:43:33.199Z,4.80
2018-03-18T21:46:00.760Z,5.27
2018-03-18T21:48:28.516Z,4.77
2018-03-18T21:50:56.095Z,4.43
2018-03-18T21:53:23.693Z,5.23
2018-03-18T21:55:51.271Z,4.43
2018-03-18T21:58:18.847Z,5.13
2018-03-18T22:00:46.424Z,4.30
2018-03-18T22:03:14.012Z,5.07
2018-03-18T22:05:42.342Z,4.80
2018-03-18T22:08:09.932Z,4.80
2018-03-18T22:10:37.506Z,4.07
2018-03-18T22:13:05.101Z,6.13
2018-03-18T22:15:32.743Z,5.40
2018-03-18T22:18:01.105Z,4.50
2018-03-18T22:20:28.709Z,3.97
2018-03-18T22:22:57.047Z,4.47
2018-03-18T22:25:24.606Z,4.80
2018-03-18T22:27:52.201Z,3.57
2018-03-18T22:30:19.775Z,4.40
2018-03-18T22:32:47.420Z,4.40
2018-03-18T22:35:14.997Z,4.13
2018-03-18T22:37:44.067Z,4.37
2018-03-18T22:40:11.631Z,4.27
2018-03-18T22:42:39.206Z,4.10
2018-03-18T22:45:06.806Z,4.17
2018-03-18T22:47:35.131Z,4.23
2018-03-18T22:50:02.854Z,4.20
2018-03-18T22:52:30.405Z,4.03
2018-03-18T22:54:57.974Z,4.10
2018-03-18T22:57:25.569Z,4.27
2018-03-18T22:59:53.924Z,4.37
2018-03-18T23:02:21.491Z,4.37
2018-03-18T23:04:49.050Z,4.27
2018-03-18T23:07:16.649Z,4.40
2018-03-18T23:09:45.001Z,4.43
2018-03-18T23:12:12.577Z,4.30
2018-03-18T23:14:40.140Z,4.00
2018-03-18T23:17:07.726Z,4.40
2018-03-18T23:19:36.052Z,4.13
2018-03-18T23:22:03.749Z,4.43
2018-03-18T23:24:31.318Z,4.20
2018-03-18T23:26:59.652Z,4.27
2018-03-18T23:29:27.418Z,4.17
2018-03-18T23:31:55.011Z,4.30
2018-03-18T23:34:22.588Z,4.40
2018-03-18T23:36:50.182Z,4.07
2018-03-18T23:39:17.754Z,3.80
2018-03-18T23:41:46.113Z,3.77
2018-03-18T23:44:13.682Z,3.77
2018-03-18T23:46:41.595Z,4.00
2018-03-18T23:49:10.046Z,3.83
2018-03-18T23:51:37.616Z,3.73
2018-03-18T23:54:05.175Z,4.10
2018-03-18T23:56:32.748Z,4.23
2018-03-18T23:59:00.529Z,3.60
